sensor_id;sensor_type;location;lat;lon;timestamp;P1;durP1;ratioP1;P2;durP2;ratioP2
6017;SDS011;3037;51.068;13.780;2023-05-21T00:00:57;37.07;;;27.10;;
6017;SDS011;3037;51.068;13.780;2023-05-21T00:03:23;39.90;;;26.67;;
6017;SDS011;3037;51.068;13.780;2023-05-21T00:05:50;37.30;;;25.47;;
6017;SDS011;3037;51.068;13.780;2023-05-21T00:08:16;33.10;;;25.63;;
6017;SDS011;3037;51.068;13.780;2023-05-21T00:10:42;40.20;;;25.90;;
6017;SDS011;3037;51.068;13.780;2023-05-21T00:13:07;35.23;;;25.73;;
6017;SDS011;3037;51.068;13.780;2023-05-21T00:15:34;41.63;;;27.80;;
6017;SDS011;3037;51.068;13.780;2023-05-21T00:18:00;35.90;;;27.10;;
6017;SDS011;3037;51.068;13.780;2023-05-21T00:20:26;35.80;;;27.23;;
6017;SDS011;3037;51.068;13.780;2023-05-21T00:22:53;35.93;;;25.93;;
6017;SDS011;3037;51.068;13.780;2023-05-21T00:25:19;37.70;;;25.47;;
6017;SDS011;3037;51.068;13.780;2023-05-21T00:27:44;38.73;;;26.53;;
6017;SDS011;3037;51.068;13.780;2023-05-21T00:30:10;36.10;;;26.17;;
6017;SDS011;3037;51.068;13.780;2023-05-21T00:32:36;40.07;;;28.00;;
6017;SDS011;3037;51.068;13.780;2023-05-21T00:35:01;41.23;;;26.17;;
6017;SDS011;3037;51.068;13.780;2023-05-21T00:37:27;34.40;;;25.60;;
6017;SDS011;3037;51.068;13.780;2023-05-21T00:39:58;39.07;;;26.63;;
6017;SDS011;3037;51.068;13.780;2023-05-21T00:42:29;33.30;;;25.27;;
6017;SDS011;3037;51.068;13.780;2023-05-21T00:44:54;37.83;;;26.87;;
6017;SDS011;3037;51.068;13.780;2023-05-21T00:47:20;38.93;;;26.73;;
6017;SDS011;3037;51.068;13.780;2023-05-21T00:49:47;41.23;;;27.20;;
6017;SDS011;3037;51.068;13.780;2023-05-21T00:52:15;37.07;;;25.13;;
6017;SDS011;3037;51.068;13.780;2023-05-21T00:54:44;47.13;;;27.30;;
6017;SDS011;3037;51.068;13.780;2023-05-21T00:57:11;38.37;;;26.27;;
6017;SDS011;3037;51.068;13.780;2023-05-21T00:59:37;43.17;;;26.77;;
6017;SDS011;3037;51.068;13.780;2023-05-21T01:02:03;33.17;;;25.03;;
6017;SDS011;3037;51.068;13.780;2023-05-21T01:04:30;35.93;;;26.47;;
6017;SDS011;3037;51.068;13.780;2023-05-21T01:06:56;32.63;;;24.90;;
6017;SDS011;3037;51.068;13.780;2023-05-21T01:09:22;40.83;;;26.97;;
6017;SDS011;3037;51.068;13.780;2023-05-21T01:11:49;32.33;;;24.83;;
6017;SDS011;3037;51.068;13.780;2023-05-21T01:14:16;41.63;;;28.37;;
6017;SDS011;3037;51.068;13.780;2023-05-21T01:16:43;35.10;;;25.30;;
6017;SDS011;3037;51.068;13.780;2023-05-21T01:19:14;36.90;;;26.10;;
6017;SDS011;3037;51.068;13.780;2023-05-21T01:21:44;35.37;;;25.73;;
6017;SDS011;3037;51.068;13.780;2023-05-21T01:24:10;36.23;;;25.53;;
6017;SDS011;3037;51.068;13.780;2023-05-21T01:26:36;33.23;;;25.17;;
6017;SDS011;3037;51.068;13.780;2023-05-21T01:29:03;31.43;;;24.33;;
6017;SDS011;3037;51.068;13.780;2023-05-21T01:31:33;34.07;;;26.67;;
6017;SDS011;3037;51.068;13.780;2023-05-21T01:34:06;36.60;;;26.50;;
6017;SDS011;3037;51.068;13.780;2023-05-21T01:36:37;38.77;;;25.30;;
6017;SDS011;3037;51.068;13.780;2023-05-21T01:39:18;39.07;;;25.30;;
6017;SDS011;3037;51.068;13.780;2023-05-21T01:41:56;35.33;;;25.97;;
6017;SDS011;3037;51.068;13.780;2023-05-21T01:44:23;39.23;;;25.63;;
6017;SDS011;3037;51.068;13.780;2023-05-21T01:46:51;36.60;;;25.43;;
6017;SDS011;3037;51.068;13.780;2023-05-21T01:49:18;38.23;;;26.20;;
6017;SDS011;3037;51.068;13.780;2023-05-21T01:51:44;39.20;;;25.27;;
6017;SDS011;3037;51.068;13.780;2023-05-21T01:54:10;37.87;;;26.10;;
6017;SDS011;3037;51.068;13.780;2023-05-21T01:56:35;38.97;;;26.33;;
6017;SDS011;3037;51.068;13.780;2023-05-21T01:59:01;40.10;;;25.77;;
6017;SDS011;3037;51.068;13.780;2023-05-21T02:01:27;38.63;;;27.33;;
6017;SDS011;3037;51.068;13.780;2023-05-21T02:03:54;39.97;;;27.23;;
6017;SDS011;3037;51.068;13.780;2023-05-21T02:06:20;39.17;;;27.93;;
6017;SDS011;3037;51.068;13.780;2023-05-21T02:08:46;38.80;;;27.27;;
6017;SDS011;3037;51.068;13.780;2023-05-21T02:11:12;39.80;;;29.20;;
6017;SDS011;3037;51.068;13.780;2023-05-21T02:13:38;43.80;;;29.03;;
6017;SDS011;3037;51.068;13.780;2023-05-21T02:16:06;41.33;;;28.93;;
6017;SDS011;3037;51.068;13.780;2023-05-21T02:18:35;36.23;;;26.97;;
6017;SDS011;3037;51.068;13.780;2023-05-21T02:21:06;38.30;;;25.17;;
6017;SDS011;3037;51.068;13.780;2023-05-21T02:23:31;36.50;;;26.00;;
6017;SDS011;3037;51.068;13.780;2023-05-21T02:25:57;35.07;;;25.20;;
6017;SDS011;3037;51.068;13.780;2023-05-21T02:28:22;33.03;;;25.50;;
6017;SDS011;3037;51.068;13.780;2023-05-21T02:30:48;35.93;;;25.57;;
6017;SDS011;3037;51.068;13.780;2023-05-21T02:33:14;40.00;;;27.77;;
6017;SDS011;3037;51.068;13.780;2023-05-21T02:35:40;37.07;;;27.03;;
6017;SDS011;3037;51.068;13.780;2023-05-21T02:38:06;36.23;;;26.27;;
6017;SDS011;3037;51.068;13.780;2023-05-21T02:40:33;35.30;;;26.60;;
6017;SDS011;3037;51.068;13.780;2023-05-21T02:42:58;33.47;;;24.80;;
6017;SDS011;3037;51.068;13.780;2023-05-21T02:45:24;35.43;;;24.87;;
6017;SDS011;3037;51.068;13.780;2023-05-21T02:47:50;38.90;;;25.10;;
6017;SDS011;3037;51.068;13.780;2023-05-21T02:50:15;40.03;;;26.70;;
6017;SDS011;3037;51.068;13.780;2023-05-21T02:52:41;35.70;;;25.17;;
6017;SDS011;3037;51.068;13.780;2023-05-21T02:55:07;38.90;;;26.93;;
6017;SDS011;3037;51.068;13.780;2023-05-21T02:57:33;39.20;;;27.47;;
6017;SDS011;3037;51.068;13.780;2023-05-21T02:59:58;36.77;;;27.13;;
6017;SDS011;3037;51.068;13.780;2023-05-21T03:02:24;49.30;;;28.47;;
6017;SDS011;3037;51.068;13.780;2023-05-21T03:04:49;42.13;;;28.80;;
6017;SDS011;3037;51.068;13.780;2023-05-21T03:07:15;43.23;;;29.23;;
6017;SDS011;3037;51.068;13.780;2023-05-21T03:09:44;39.17;;;28.10;;
6017;SDS011;3037;51.068;13.780;2023-05-21T03:12:09;39.33;;;28.60;;
6017;SDS011;3037;51.068;13.780;2023-05-21T03:14:35;36.17;;;27.10;;
6017;SDS011;3037;51.068;13.780;2023-05-21T03:17:01;40.03;;;26.97;;
6017;SDS011;3037;51.068;13.780;2023-05-21T03:19:29;35.97;;;25.83;;
6017;SDS011;3037;51.068;13.780;2023-05-21T03:21:58;36.50;;;24.73;;
6017;SDS011;3037;51.068;13.780;2023-05-21T03:24:24;37.03;;;26.03;;
6017;SDS011;3037;51.068;13.780;2023-05-21T03:26:50;39.40;;;27.07;;
6017;SDS011;3037;51.068;13.780;2023-05-21T03:29:16;36.87;;;27.00;;
6017;SDS011;3037;51.068;13.780;2023-05-21T03:31:41;41.17;;;28.67;;
6017;SDS011;3037;51.068;13.780;2023-05-21T03:34:07;38.70;;;29.17;;
6017;SDS011;3037;51.068;13.780;2023-05-21T03:36:32;39.20;;;29.23;;
6017;SDS011;3037;51.068;13.780;2023-05-21T03:38:58;40.20;;;28.43;;
6017;SDS011;3037;51.068;13.780;2023-05-21T03:41:23;41.97;;;26.10;;
6017;SDS011;3037;51.068;13.780;2023-05-21T03:43:50;42.63;;;28.33;;
6017;SDS011;3037;51.068;13.780;2023-05-21T03:46:15;40.33;;;28.13;;
6017;SDS011;3037;51.068;13.780;2023-05-21T03:48:41;39.03;;;28.10;;
6017;SDS011;3037;51.068;13.780;2023-05-21T03:51:06;40.37;;;27.73;;
6017;SDS011;3037;51.068;13.780;2023-05-21T03:53:33;36.17;;;25.53;;
6017;SDS011;3037;51.068;13.780;2023-05-21T03:55:59;42.43;;;28.83;;
6017;SDS011;3037;51.068;13.780;2023-05-21T03:58:25;40.67;;;27.53;;
6017;SDS011;3037;51.068;13.780;2023-05-21T04:00:50;37.50;;;26.50;;
6017;SDS011;3037;51.068;13.780;2023-05-21T04:03:16;38.70;;;27.90;;
6017;SDS011;3037;51.068;13.780;2023-05-21T04:05:42;46.20;;;30.17;;
6017;SDS011;3037;51.068;13.780;2023-05-21T04:08:07;41.23;;;27.47;;
6017;SDS011;3037;51.068;13.780;2023-05-21T04:10:33;33.97;;;25.60;;
6017;SDS011;3037;51.068;13.780;2023-05-21T04:12:59;41.23;;;27.33;;
6017;SDS011;3037;51.068;13.780;2023-05-21T04:15:24;38.83;;;26.37;;
6017;SDS011;3037;51.068;13.780;2023-05-21T04:17:51;41.00;;;27.17;;
6017;SDS011;3037;51.068;13.780;2023-05-21T04:20:17;38.13;;;26.60;;
6017;SDS011;3037;51.068;13.780;2023-05-21T04:22:42;34.70;;;24.10;;
6017;SDS011;3037;51.068;13.780;2023-05-21T04:25:08;34.30;;;26.47;;
6017;SDS011;3037;51.068;13.780;2023-05-21T04:27:34;39.97;;;27.07;;
6017;SDS011;3037;51.068;13.780;2023-05-21T04:30:00;41.40;;;28.00;;
6017;SDS011;3037;51.068;13.780;2023-05-21T04:32:27;37.77;;;27.10;;
6017;SDS011;3037;51.068;13.780;2023-05-21T04:34:54;43.30;;;28.67;;
6017;SDS011;3037;51.068;13.780;2023-05-21T04:37:20;38.43;;;26.20;;
6017;SDS011;3037;51.068;13.780;2023-05-21T04:39:48;39.23;;;26.43;;
6017;SDS011;3037;51.068;13.780;2023-05-21T04:42:14;38.03;;;26.47;;
6017;SDS011;3037;51.068;13.780;2023-05-21T04:44:39;37.80;;;25.27;;
6017;SDS011;3037;51.068;13.780;2023-05-21T04:47:08;36.00;;;25.57;;
6017;SDS011;3037;51.068;13.780;2023-05-21T04:49:34;33.93;;;25.97;;
6017;SDS011;3037;51.068;13.780;2023-05-21T04:52:00;37.47;;;26.33;;
6017;SDS011;3037;51.068;13.780;2023-05-21T04:54:26;32.57;;;25.37;;
6017;SDS011;3037;51.068;13.780;2023-05-21T04:56:52;32.83;;;24.17;;
6017;SDS011;3037;51.068;13.780;2023-05-21T04:59:17;39.03;;;24.50;;
6017;SDS011;3037;51.068;13.780;2023-05-21T05:01:43;37.40;;;25.00;;
6017;SDS011;3037;51.068;13.780;2023-05-21T05:04:09;30.00;;;22.23;;
6017;SDS011;3037;51.068;13.780;2023-05-21T05:06:35;29.57;;;22.80;;
6017;SDS011;3037;51.068;13.780;2023-05-21T05:09:00;29.73;;;23.00;;
6017;SDS011;3037;51.068;13.780;2023-05-21T05:11:26;32.87;;;23.90;;
6017;SDS011;3037;51.068;13.780;2023-05-21T05:13:51;27.80;;;23.07;;
6017;SDS011;3037;51.068;13.780;2023-05-21T05:16:17;29.67;;;22.33;;
6017;SDS011;3037;51.068;13.780;2023-05-21T05:18:48;33.80;;;22.87;;
6017;SDS011;3037;51.068;13.780;2023-05-21T05:21:15;29.13;;;22.33;;
6017;SDS011;3037;51.068;13.780;2023-05-21T05:23:41;28.43;;;22.60;;
6017;SDS011;3037;51.068;13.780;2023-05-21T05:26:06;28.67;;;21.07;;
6017;SDS011;3037;51.068;13.780;2023-05-21T05:28:32;33.73;;;22.50;;
6017;SDS011;3037;51.068;13.780;2023-05-21T05:30:57;28.73;;;21.97;;
6017;SDS011;3037;51.068;13.780;2023-05-21T05:33:23;24.90;;;20.70;;
6017;SDS011;3037;51.068;13.780;2023-05-21T05:35:48;29.70;;;22.20;;
6017;SDS011;3037;51.068;13.780;2023-05-21T05:38:14;29.23;;;20.20;;
6017;SDS011;3037;51.068;13.780;2023-05-21T05:40:40;25.47;;;20.73;;
6017;SDS011;3037;51.068;13.780;2023-05-21T05:43:07;27.57;;;21.80;;
6017;SDS011;3037;51.068;13.780;2023-05-21T05:45:33;24.33;;;19.03;;
6017;SDS011;3037;51.068;13.780;2023-05-21T05:47:58;31.60;;;20.30;;
6017;SDS011;3037;51.068;13.780;2023-05-21T05:50:24;25.77;;;19.43;;
6017;SDS011;3037;51.068;13.780;2023-05-21T05:52:49;25.53;;;18.67;;
6017;SDS011;3037;51.068;13.780;2023-05-21T05:55:15;24.70;;;19.27;;
6017;SDS011;3037;51.068;13.780;2023-05-21T05:57:41;25.10;;;18.90;;
6017;SDS011;3037;51.068;13.780;2023-05-21T06:00:06;25.53;;;19.90;;
6017;SDS011;3037;51.068;13.780;2023-05-21T06:02:35;25.23;;;18.23;;
6017;SDS011;3037;51.068;13.780;2023-05-21T06:05:01;24.43;;;18.10;;
6017;SDS011;3037;51.068;13.780;2023-05-21T06:07:27;22.67;;;18.73;;
6017;SDS011;3037;51.068;13.780;2023-05-21T06:09:53;21.40;;;18.17;;
6017;SDS011;3037;51.068;13.780;2023-05-21T06:12:18;20.00;;;17.17;;
6017;SDS011;3037;51.068;13.780;2023-05-21T06:14:44;20.97;;;16.40;;
6017;SDS011;3037;51.068;13.780;2023-05-21T06:17:11;19.00;;;15.50;;
6017;SDS011;3037;51.068;13.780;2023-05-21T06:19:37;20.90;;;17.30;;
6017;SDS011;3037;51.068;13.780;2023-05-21T06:22:02;21.33;;;16.63;;
6017;SDS011;3037;51.068;13.780;2023-05-21T06:24:28;18.10;;;16.23;;
6017;SDS011;3037;51.068;13.780;2023-05-21T06:26:54;18.93;;;16.43;;
6017;SDS011;3037;51.068;13.780;2023-05-21T06:29:20;19.27;;;17.17;;
6017;SDS011;3037;51.068;13.780;2023-05-21T06:31:45;19.50;;;16.17;;
6017;SDS011;3037;51.068;13.780;2023-05-21T06:34:11;20.97;;;16.50;;
6017;SDS011;3037;51.068;13.780;2023-05-21T06:36:36;18.20;;;15.97;;
6017;SDS011;3037;51.068;13.780;2023-05-21T06:39:02;16.40;;;14.70;;
6017;SDS011;3037;51.068;13.780;2023-05-21T06:41:27;21.87;;;15.10;;
6017;SDS011;3037;51.068;13.780;2023-05-21T06:43:53;18.40;;;15.33;;
6017;SDS011;3037;51.068;13.780;2023-05-21T06:46:19;16.77;;;15.00;;
6017;SDS011;3037;51.068;13.780;2023-05-21T06:48:44;18.03;;;15.17;;
6017;SDS011;3037;51.068;13.780;2023-05-21T06:51:10;16.83;;;15.13;;
6017;SDS011;3037;51.068;13.780;2023-05-21T06:53:36;17.90;;;15.80;;
6017;SDS011;3037;51.068;13.780;2023-05-21T06:56:02;18.33;;;16.33;;
6017;SDS011;3037;51.068;13.780;2023-05-21T06:58:27;22.23;;;14.90;;
6017;SDS011;3037;51.068;13.780;2023-05-21T07:00:55;18.37;;;14.97;;
6017;SDS011;3037;51.068;13.780;2023-05-21T07:03:21;16.03;;;14.30;;
6017;SDS011;3037;51.068;13.780;2023-05-21T07:05:47;17.83;;;15.00;;
6017;SDS011;3037;51.068;13.780;2023-05-21T07:08:12;18.00;;;16.07;;
6017;SDS011;3037;51.068;13.780;2023-05-21T07:10:38;17.13;;;14.50;;
6017;SDS011;3037;51.068;13.780;2023-05-21T07:13:03;17.73;;;15.60;;
6017;SDS011;3037;51.068;13.780;2023-05-21T07:15:29;17.90;;;14.87;;
6017;SDS011;3037;51.068;13.780;2023-05-21T07:17:54;21.37;;;16.57;;
6017;SDS011;3037;51.068;13.780;2023-05-21T07:20:20;18.70;;;15.97;;
6017;SDS011;3037;51.068;13.780;2023-05-21T07:22:45;25.90;;;15.17;;
6017;SDS011;3037;51.068;13.780;2023-05-21T07:25:11;21.30;;;15.17;;
6017;SDS011;3037;51.068;13.780;2023-05-21T07:27:36;19.17;;;16.47;;
6017;SDS011;3037;51.068;13.780;2023-05-21T07:30:02;21.07;;;15.67;;
6017;SDS011;3037;51.068;13.780;2023-05-21T07:32:28;19.20;;;14.47;;
6017;SDS011;3037;51.068;13.780;2023-05-21T07:34:54;16.27;;;14.23;;
6017;SDS011;3037;51.068;13.780;2023-05-21T07:37:20;18.00;;;14.80;;
6017;SDS011;3037;51.068;13.780;2023-05-21T07:39:45;15.90;;;14.30;;
6017;SDS011;3037;51.068;13.780;2023-05-21T07:42:11;17.80;;;14.60;;
6017;SDS011;3037;51.068;13.780;2023-05-21T07:44:37;17.13;;;15.33;;
6017;SDS011;3037;51.068;13.780;2023-05-21T07:47:02;18.03;;;13.50;;
6017;SDS011;3037;51.068;13.780;2023-05-21T07:49:28;16.47;;;14.67;;
6017;SDS011;3037;51.068;13.780;2023-05-21T07:51:54;19.00;;;14.60;;
6017;SDS011;3037;51.068;13.780;2023-05-21T07:54:19;24.53;;;13.60;;
6017;SDS011;3037;51.068;13.780;2023-05-21T07:56:45;15.50;;;13.43;;
6017;SDS011;3037;51.068;13.780;2023-05-21T07:59:12;26.90;;;15.10;;
6017;SDS011;3037;51.068;13.780;2023-05-21T08:01:38;14.53;;;13.13;;
6017;SDS011;3037;51.068;13.780;2023-05-21T08:04:05;14.47;;;13.03;;
6017;SDS011;3037;51.068;13.780;2023-05-21T08:06:31;18.50;;;13.67;;
6017;SDS011;3037;51.068;13.780;2023-05-21T08:09:01;15.83;;;14.17;;
6017;SDS011;3037;51.068;13.780;2023-05-21T08:11:27;19.30;;;13.50;;
6017;SDS011;3037;51.068;13.780;2023-05-21T08:13:53;15.87;;;12.97;;
6017;SDS011;3037;51.068;13.780;2023-05-21T08:16:18;15.90;;;13.43;;
6017;SDS011;3037;51.068;13.780;2023-05-21T08:18:45;16.53;;;13.63;;
6017;SDS011;3037;51.068;13.780;2023-05-21T08:21:10;15.07;;;13.57;;
6017;SDS011;3037;51.068;13.780;2023-05-21T08:23:36;22.27;;;13.20;;
6017;SDS011;3037;51.068;13.780;2023-05-21T08:26:02;21.17;;;13.67;;
6017;SDS011;3037;51.068;13.780;2023-05-21T08:28:27;22.90;;;14.30;;
6017;SDS011;3037;51.068;13.780;2023-05-21T08:30:53;16.73;;;13.43;;
6017;SDS011;3037;51.068;13.780;2023-05-21T08:33:19;16.43;;;13.43;;
6017;SDS011;3037;51.068;13.780;2023-05-21T08:35:44;15.23;;;13.70;;
6017;SDS011;3037;51.068;13.780;2023-05-21T08:38:10;19.30;;;14.10;;
6017;SDS011;3037;51.068;13.780;2023-05-21T08:40:35;15.03;;;13.43;;
6017;SDS011;3037;51.068;13.780;2023-05-21T08:43:01;14.97;;;12.83;;
6017;SDS011;3037;51.068;13.780;2023-05-21T08:45:27;16.63;;;12.97;;
6017;SDS011;3037;51.068;13.780;2023-05-21T08:48:01;16.60;;;13.33;;
6017;SDS011;3037;51.068;13.780;2023-05-21T08:50:27;15.00;;;13.40;;
6017;SDS011;3037;51.068;13.780;2023-05-21T08:52:54;15.73;;;13.17;;
6017;SDS011;3037;51.068;13.780;2023-05-21T08:55:22;19.67;;;14.60;;
6017;SDS011;3037;51.068;13.780;2023-05-21T08:57:48;19.97;;;13.50;;
6017;SDS011;3037;51.068;13.780;2023-05-21T09:00:14;13.90;;;12.20;;
6017;SDS011;3037;51.068;13.780;2023-05-21T09:02:40;18.77;;;15.73;;
6017;SDS011;3037;51.068;13.780;2023-05-21T09:05:07;16.40;;;12.27;;
6017;SDS011;3037;51.068;13.780;2023-05-21T09:07:37;14.43;;;12.80;;
6017;SDS011;3037;51.068;13.780;2023-05-21T09:10:10;14.37;;;13.03;;
6017;SDS011;3037;51.068;13.780;2023-05-21T09:12:37;14.57;;;13.10;;
6017;SDS011;3037;51.068;13.780;2023-05-21T09:15:03;15.50;;;13.90;;
6017;SDS011;3037;51.068;13.780;2023-05-21T09:17:29;15.83;;;12.07;;
6017;SDS011;3037;51.068;13.780;2023-05-21T09:20:04;16.90;;;13.33;;
6017;SDS011;3037;51.068;13.780;2023-05-21T09:22:41;13.73;;;12.33;;
6017;SDS011;3037;51.068;13.780;2023-05-21T09:25:12;14.33;;;12.90;;
6017;SDS011;3037;51.068;13.780;2023-05-21T09:27:40;14.23;;;12.00;;
6017;SDS011;3037;51.068;13.780;2023-05-21T09:30:09;13.60;;;12.23;;
6017;SDS011;3037;51.068;13.780;2023-05-21T09:32:39;14.37;;;12.10;;
6017;SDS011;3037;51.068;13.780;2023-05-21T09:35:08;17.47;;;13.47;;
6017;SDS011;3037;51.068;13.780;2023-05-21T09:40:10;14.07;;;12.57;;
6017;SDS011;3037;51.068;13.780;2023-05-21T09:42:38;14.37;;;11.80;;
6017;SDS011;3037;51.068;13.780;2023-05-21T09:45:05;14.90;;;13.07;;
6017;SDS011;3037;51.068;13.780;2023-05-21T09:47:41;14.33;;;12.93;;
6017;SDS011;3037;51.068;13.780;2023-05-21T09:50:11;14.00;;;12.20;;
6017;SDS011;3037;51.068;13.780;2023-05-21T09:52:37;16.07;;;13.67;;
6017;SDS011;3037;51.068;13.780;2023-05-21T09:55:06;13.13;;;11.70;;
6017;SDS011;3037;51.068;13.780;2023-05-21T09:57:43;13.30;;;11.77;;
6017;SDS011;3037;51.068;13.780;2023-05-21T10:02:49;17.77;;;12.00;;
6017;SDS011;3037;51.068;13.780;2023-05-21T10:05:35;15.00;;;11.80;;
6017;SDS011;3037;51.068;13.780;2023-05-21T10:08:02;13.30;;;11.90;;
6017;SDS011;3037;51.068;13.780;2023-05-21T10:10:30;12.37;;;11.27;;
6017;SDS011;3037;51.068;13.780;2023-05-21T10:13:00;16.27;;;11.60;;
6017;SDS011;3037;51.068;13.780;2023-05-21T10:15:31;12.77;;;11.47;;
6017;SDS011;3037;51.068;13.780;2023-05-21T10:18:02;14.60;;;10.80;;
6017;SDS011;3037;51.068;13.780;2023-05-21T10:20:28;16.27;;;11.90;;
6017;SDS011;3037;51.068;13.780;2023-05-21T10:22:54;13.27;;;11.87;;
6017;SDS011;3037;51.068;13.780;2023-05-21T10:25:21;23.87;;;12.53;;
6017;SDS011;3037;51.068;13.780;2023-05-21T10:27:49;13.70;;;12.27;;
6017;SDS011;3037;51.068;13.780;2023-05-21T10:30:18;16.77;;;12.00;;
6017;SDS011;3037;51.068;13.780;2023-05-21T10:32:46;17.60;;;14.93;;
6017;SDS011;3037;51.068;13.780;2023-05-21T10:35:13;15.83;;;14.30;;
6017;SDS011;3037;51.068;13.780;2023-05-21T10:37:40;16.20;;;14.23;;
6017;SDS011;3037;51.068;13.780;2023-05-21T10:40:08;16.90;;;13.77;;
6017;SDS011;3037;51.068;13.780;2023-05-21T10:47:58;14.80;;;13.00;;
6017;SDS011;3037;51.068;13.780;2023-05-21T10:50:29;12.00;;;10.80;;
6017;SDS011;3037;51.068;13.780;2023-05-21T10:56:53;10.47;;;9.53;;
6017;SDS011;3037;51.068;13.780;2023-05-21T11:02:13;12.13;;;9.70;;
6017;SDS011;3037;51.068;13.780;2023-05-21T11:04:40;14.00;;;9.50;;
6017;SDS011;3037;51.068;13.780;2023-05-21T11:07:09;11.70;;;9.37;;
6017;SDS011;3037;51.068;13.780;2023-05-21T11:09:36;11.73;;;10.40;;
6017;SDS011;3037;51.068;13.780;2023-05-21T11:12:02;9.73;;;8.60;;
6017;SDS011;3037;51.068;13.780;2023-05-21T11:22:08;8.40;;;7.70;;
6017;SDS011;3037;51.068;13.780;2023-05-21T11:24:55;8.50;;;7.80;;
6017;SDS011;3037;51.068;13.780;2023-05-21T11:27:35;8.97;;;8.27;;
6017;SDS011;3037;51.068;13.780;2023-05-21T11:32:37;10.50;;;9.50;;
6017;SDS011;3037;51.068;13.780;2023-05-21T11:35:04;10.40;;;9.40;;
6017;SDS011;3037;51.068;13.780;2023-05-21T11:37:30;12.13;;;10.33;;
6017;SDS011;3037;51.068;13.780;2023-05-21T11:40:15;10.43;;;9.33;;
6017;SDS011;3037;51.068;13.780;2023-05-21T11:42:47;10.90;;;9.90;;
6017;SDS011;3037;51.068;13.780;2023-05-21T11:45:17;10.07;;;9.13;;
6017;SDS011;3037;51.068;13.780;2023-05-21T11:47:44;12.20;;;10.33;;
6017;SDS011;3037;51.068;13.780;2023-05-21T11:50:11;9.70;;;8.23;;
6017;SDS011;3037;51.068;13.780;2023-05-21T11:52:38;10.83;;;9.80;;
6017;SDS011;3037;51.068;13.780;2023-05-21T11:55:04;10.67;;;9.70;;
6017;SDS011;3037;51.068;13.780;2023-05-21T11:57:31;11.57;;;10.47;;
6017;SDS011;3037;51.068;13.780;2023-05-21T11:59:57;10.47;;;9.50;;
6017;SDS011;3037;51.068;13.780;2023-05-21T12:02:25;11.27;;;10.13;;
6017;SDS011;3037;51.068;13.780;2023-05-21T12:04:52;11.47;;;10.10;;
6017;SDS011;3037;51.068;13.780;2023-05-21T12:07:18;11.43;;;10.23;;
6017;SDS011;3037;51.068;13.780;2023-05-21T12:09:44;12.63;;;11.33;;
6017;SDS011;3037;51.068;13.780;2023-05-21T12:12:13;16.27;;;11.67;;
6017;SDS011;3037;51.068;13.780;2023-05-21T12:14:42;14.50;;;11.50;;
6017;SDS011;3037;51.068;13.780;2023-05-21T12:17:12;12.40;;;11.30;;
6017;SDS011;3037;51.068;13.780;2023-05-21T12:19:40;18.30;;;11.93;;
6017;SDS011;3037;51.068;13.780;2023-05-21T12:22:07;13.83;;;12.50;;
6017;SDS011;3037;51.068;13.780;2023-05-21T12:24:33;13.60;;;12.13;;
6017;SDS011;3037;51.068;13.780;2023-05-21T12:27:00;13.37;;;12.03;;
6017;SDS011;3037;51.068;13.780;2023-05-21T12:29:29;12.73;;;11.33;;
6017;SDS011;3037;51.068;13.780;2023-05-21T12:32:02;13.30;;;12.00;;
6017;SDS011;3037;51.068;13.780;2023-05-21T12:34:43;13.27;;;12.07;;
6017;SDS011;3037;51.068;13.780;2023-05-21T12:37:16;16.00;;;13.47;;
6017;SDS011;3037;51.068;13.780;2023-05-21T12:39:47;15.80;;;12.07;;
6017;SDS011;3037;51.068;13.780;2023-05-21T12:42:14;14.13;;;12.83;;
6017;SDS011;3037;51.068;13.780;2023-05-21T12:44:44;21.10;;;13.20;;
6017;SDS011;3037;51.068;13.780;2023-05-21T12:47:11;12.47;;;11.20;;
6017;SDS011;3037;51.068;13.780;2023-05-21T12:49:41;13.53;;;11.30;;
6017;SDS011;3037;51.068;13.780;2023-05-21T12:52:17;16.13;;;11.83;;
6017;SDS011;3037;51.068;13.780;2023-05-21T12:54:44;16.03;;;13.00;;
6017;SDS011;3037;51.068;13.780;2023-05-21T12:57:13;13.63;;;12.07;;
6017;SDS011;3037;51.068;13.780;2023-05-21T12:59:46;17.83;;;13.00;;
6017;SDS011;3037;51.068;13.780;2023-05-21T13:02:21;14.10;;;12.47;;
6017;SDS011;3037;51.068;13.780;2023-05-21T13:04:47;14.87;;;13.37;;
6017;SDS011;3037;51.068;13.780;2023-05-21T13:07:14;15.30;;;13.70;;
6017;SDS011;3037;51.068;13.780;2023-05-21T13:09:40;14.43;;;12.93;;
6017;SDS011;3037;51.068;13.780;2023-05-21T13:12:06;15.97;;;12.80;;
6017;SDS011;3037;51.068;13.780;2023-05-21T13:14:31;14.80;;;13.37;;
6017;SDS011;3037;51.068;13.780;2023-05-21T13:16:57;15.10;;;13.57;;
6017;SDS011;3037;51.068;13.780;2023-05-21T13:19:23;21.80;;;13.20;;
6017;SDS011;3037;51.068;13.780;2023-05-21T13:21:48;16.33;;;12.93;;
6017;SDS011;3037;51.068;13.780;2023-05-21T13:24:14;13.60;;;12.20;;
6017;SDS011;3037;51.068;13.780;2023-05-21T13:26:39;15.37;;;13.87;;
6017;SDS011;3037;51.068;13.780;2023-05-21T13:29:05;13.37;;;12.17;;
6017;SDS011;3037;51.068;13.780;2023-05-21T13:31:31;16.00;;;13.00;;
6017;SDS011;3037;51.068;13.780;2023-05-21T13:33:56;14.20;;;12.67;;
6017;SDS011;3037;51.068;13.780;2023-05-21T13:36:22;15.63;;;12.47;;
6017;SDS011;3037;51.068;13.780;2023-05-21T13:38:47;16.20;;;13.60;;
6017;SDS011;3037;51.068;13.780;2023-05-21T13:41:13;17.40;;;12.90;;
6017;SDS011;3037;51.068;13.780;2023-05-21T13:43:40;17.20;;;13.20;;
6017;SDS011;3037;51.068;13.780;2023-05-21T13:46:06;14.73;;;13.20;;
6017;SDS011;3037;51.068;13.780;2023-05-21T13:48:32;14.10;;;12.27;;
6017;SDS011;3037;51.068;13.780;2023-05-21T13:50:58;12.90;;;9.77;;
6017;SDS011;3037;51.068;13.780;2023-05-21T13:53:24;9.20;;;8.30;;
6017;SDS011;3037;51.068;13.780;2023-05-21T13:55:49;8.60;;;7.90;;
6017;SDS011;3037;51.068;13.780;2023-05-21T13:58:15;8.57;;;7.77;;
6017;SDS011;3037;51.068;13.780;2023-05-21T14:00:41;9.10;;;7.63;;
6017;SDS011;3037;51.068;13.780;2023-05-21T14:03:06;9.30;;;8.50;;
6017;SDS011;3037;51.068;13.780;2023-05-21T14:05:34;8.83;;;7.83;;
6017;SDS011;3037;51.068;13.780;2023-05-21T14:07:59;15.00;;;8.70;;
6017;SDS011;3037;51.068;13.780;2023-05-21T14:10:25;10.67;;;9.07;;
6017;SDS011;3037;51.068;13.780;2023-05-21T14:12:51;9.53;;;8.57;;
6017;SDS011;3037;51.068;13.780;2023-05-21T14:15:16;9.60;;;8.60;;
6017;SDS011;3037;51.068;13.780;2023-05-21T14:17:42;12.03;;;9.57;;
6017;SDS011;3037;51.068;13.780;2023-05-21T14:20:08;10.03;;;9.00;;
6017;SDS011;3037;51.068;13.780;2023-05-21T14:22:34;11.33;;;9.13;;
6017;SDS011;3037;51.068;13.780;2023-05-21T14:25:00;9.07;;;8.37;;
6017;SDS011;3037;51.068;13.780;2023-05-21T14:27:27;10.13;;;9.23;;
6017;SDS011;3037;51.068;13.780;2023-05-21T14:29:52;10.83;;;9.43;;
6017;SDS011;3037;51.068;13.780;2023-05-21T14:32:18;9.70;;;8.90;;
6017;SDS011;3037;51.068;13.780;2023-05-21T14:34:43;16.63;;;9.30;;
6017;SDS011;3037;51.068;13.780;2023-05-21T14:37:09;10.97;;;9.87;;
6017;SDS011;3037;51.068;13.780;2023-05-21T14:39:34;13.60;;;10.13;;
6017;SDS011;3037;51.068;13.780;2023-05-21T14:42:01;10.90;;;9.43;;
6017;SDS011;3037;51.068;13.780;2023-05-21T14:44:28;10.50;;;9.40;;
6017;SDS011;3037;51.068;13.780;2023-05-21T14:46:54;12.13;;;10.30;;
6017;SDS011;3037;51.068;13.780;2023-05-21T14:49:19;12.73;;;9.27;;
6017;SDS011;3037;51.068;13.780;2023-05-21T14:51:45;10.30;;;9.03;;
6017;SDS011;3037;51.068;13.780;2023-05-21T14:54:11;11.07;;;7.43;;
6017;SDS011;3037;51.068;13.780;2023-05-21T14:56:37;18.10;;;8.30;;
6017;SDS011;3037;51.068;13.780;2023-05-21T14:59:02;10.37;;;8.63;;
6017;SDS011;3037;51.068;13.780;2023-05-21T15:01:28;8.97;;;8.17;;